createdAt,value
2023-05-05T00:01:20.426Z,8.19
2023-05-05T00:03:47.393Z,8.18
2023-05-05T00:06:14.746Z,8.07
2023-05-05T00:08:41.874Z,8.31
2023-05-05T00:11:08.445Z,7.99
2023-05-05T00:13:35.064Z,8.39
2023-05-05T00:16:01.752Z,8.32
2023-05-05T00:18:29.524Z,8.21
2023-05-05T00:20:56.005Z,8.43
2023-05-05T00:23:22.521Z,8.59
2023-05-05T00:25:49.057Z,8.50
2023-05-05T00:28:15.769Z,8.28
2023-05-05T00:30:42.811Z,8.48
2023-05-05T00:33:09.439Z,7.98
2023-05-05T00:35:35.920Z,8.43
2023-05-05T00:38:02.960Z,8.26
2023-05-05T00:40:29.553Z,8.54
2023-05-05T00:42:55.995Z,8.67
2023-05-05T00:45:22.568Z,8.54
2023-05-05T00:47:55.457Z,9.64
2023-05-05T00:50:25.704Z,8.94
2023-05-05T00:53:00.297Z,9.00
2023-05-05T00:55:29.593Z,8.42
2023-05-05T00:57:58.351Z,9.18
2023-05-05T01:00:26.416Z,9.33
2023-05-05T01:02:53.305Z,8.51
2023-05-05T01:05:23.476Z,8.79
2023-05-05T01:07:54.377Z,8.93
2023-05-05T01:10:53.074Z,9.21
2023-05-05T01:13:52.490Z,8.41
2023-05-05T01:16:26.854Z,8.82
2023-05-05T01:19:24.915Z,8.85
2023-05-05T01:22:00.673Z,8.31
2023-05-05T01:25:08.738Z,9.23
2023-05-05T01:27:38.302Z,8.85
2023-05-05T01:31:04.572Z,8.43
2023-05-05T01:33:44.054Z,9.79
2023-05-05T01:36:22.773Z,9.47
2023-05-05T01:38:58.047Z,9.52
2023-05-05T01:41:37.789Z,8.73
2023-05-05T01:44:10.502Z,8.57
2023-05-05T01:46:37.876Z,8.96
2023-05-05T01:49:09.978Z,8.79
2023-05-05T01:51:39.045Z,8.74
2023-05-05T01:54:08.356Z,8.89
2023-05-05T01:56:40.620Z,9.16
2023-05-05T01:59:09.937Z,8.61
2023-05-05T02:01:41.668Z,9.48
2023-05-05T02:04:10.063Z,9.31
2023-05-05T02:06:40.896Z,8.91
2023-05-05T02:09:13.751Z,8.98
2023-05-05T02:11:41.509Z,9.20
2023-05-05T02:14:11.140Z,9.18
2023-05-05T02:16:41.258Z,8.78
2023-05-05T02:19:12.137Z,8.95
2023-05-05T02:21:39.196Z,8.78
2023-05-05T02:24:07.331Z,9.47
2023-05-05T02:26:40.135Z,8.65
2023-05-05T02:29:17.325Z,9.63
2023-05-05T02:31:50.848Z,9.31
2023-05-05T02:34:27.015Z,9.36
2023-05-05T02:37:03.308Z,8.90
2023-05-05T02:39:38.562Z,9.05
2023-05-05T02:42:09.069Z,8.77
2023-05-05T02:44:42.461Z,8.86
2023-05-05T02:47:09.431Z,8.83
2023-05-05T02:49:36.726Z,9.00
2023-05-05T02:52:03.423Z,9.01
2023-05-05T02:54:32.706Z,9.27
2023-05-05T02:57:00.717Z,8.63
2023-05-05T02:59:48.646Z,8.96
2023-05-05T03:02:45.131Z,9.42
2023-05-05T03:05:40.642Z,8.52
2023-05-05T03:08:18.448Z,8.81
2023-05-05T03:11:01.496Z,9.19
2023-05-05T03:13:29.898Z,9.47
2023-05-05T03:16:00.091Z,9.56
2023-05-05T03:18:31.342Z,9.38
2023-05-05T03:21:07.808Z,9.19
2023-05-05T03:23:43.727Z,9.33
2023-05-05T03:26:10.759Z,9.56
2023-05-05T03:28:37.533Z,8.68
2023-05-05T03:31:04.904Z,8.76
2023-05-05T03:33:31.512Z,8.57
2023-05-05T03:35:58.030Z,8.66
2023-05-05T03:38:24.543Z,9.06
2023-05-05T03:40:51.085Z,9.01
2023-05-05T03:43:17.675Z,8.92
2023-05-05T03:45:44.134Z,8.80
2023-05-05T03:48:10.762Z,8.86
2023-05-05T03:50:37.644Z,9.15
2023-05-05T03:53:04.112Z,9.09
2023-05-05T03:55:33.556Z,8.65
2023-05-05T03:58:00.157Z,9.34
2023-05-05T04:00:27.462Z,8.59
2023-05-05T04:02:54.006Z,8.95
2023-05-05T04:05:22.491Z,9.07
2023-05-05T04:07:52.294Z,8.81
2023-05-05T04:10:18.929Z,9.10
2023-05-05T04:12:46.239Z,8.51
2023-05-05T04:15:12.732Z,8.50
2023-05-05T04:17:39.565Z,8.70
2023-05-05T04:20:07.559Z,8.72
2023-05-05T04:22:34.203Z,8.76
2023-05-05T04:25:01.167Z,8.21
2023-05-05T04:27:29.854Z,8.68
2023-05-05T04:29:57.556Z,9.11
2023-05-05T04:32:24.479Z,7.91
2023-05-05T04:34:51.053Z,8.27
2023-05-05T04:37:17.570Z,9.21
2023-05-05T04:39:44.337Z,8.84
2023-05-05T04:42:11.191Z,8.61
2023-05-05T04:44:37.940Z,9.22
2023-05-05T04:47:04.439Z,8.24
2023-05-05T04:49:31.871Z,9.33
2023-05-05T04:51:59.132Z,9.21
2023-05-05T04:54:25.780Z,9.58
2023-05-05T04:56:52.636Z,9.99
2023-05-05T04:59:19.168Z,10.58
2023-05-05T05:01:46.112Z,10.58
2023-05-05T05:04:13.691Z,11.24
2023-05-05T05:06:40.604Z,13.01
2023-05-05T05:09:07.096Z,16.37
2023-05-05T05:11:35.888Z,12.76
2023-05-05T05:14:02.581Z,11.25
2023-05-05T05:16:29.287Z,11.19
2023-05-05T05:18:55.726Z,10.42
2023-05-05T05:21:22.207Z,10.11
2023-05-05T05:23:48.660Z,10.83
2023-05-05T05:26:15.191Z,10.25
2023-05-05T05:28:42.003Z,10.05
2023-05-05T05:31:12.610Z,9.57
2023-05-05T05:33:39.523Z,9.20
2023-05-05T05:36:06.096Z,8.93
2023-05-05T05:38:33.260Z,9.01
2023-05-05T05:40:59.730Z,8.91
2023-05-05T05:43:26.163Z,9.10
2023-05-05T05:45:52.670Z,9.90
2023-05-05T05:48:19.181Z,9.88
2023-05-05T05:50:45.601Z,9.73
2023-05-05T05:53:12.005Z,9.20
2023-05-05T05:55:38.839Z,8.69
2023-05-05T05:58:05.345Z,8.98
2023-05-05T06:00:31.844Z,8.86
2023-05-05T06:02:58.607Z,8.42
2023-05-05T06:05:25.212Z,8.51
2023-05-05T06:07:51.650Z,8.38
2023-05-05T06:10:29.827Z,8.66
2023-05-05T06:12:56.597Z,7.74
2023-05-05T06:15:23.472Z,8.26
2023-05-05T06:17:49.958Z,8.26
2023-05-05T06:20:16.654Z,8.24
2023-05-05T06:22:43.118Z,8.55
2023-05-05T06:25:09.795Z,8.49
2023-05-05T06:27:37.694Z,8.15
2023-05-05T06:30:09.692Z,8.22
2023-05-05T06:32:36.355Z,7.92
2023-05-05T06:35:03.190Z,8.32
2023-05-05T06:37:30.749Z,7.73
2023-05-05T06:39:57.234Z,7.91
2023-05-05T06:42:23.788Z,7.89
2023-05-05T06:44:50.347Z,8.19
2023-05-05T06:47:17.661Z,7.81
2023-05-05T06:49:44.300Z,7.50
2023-05-05T06:52:11.366Z,7.61
2023-05-05T06:54:44.749Z,7.46
2023-05-05T06:57:11.186Z,7.99
2023-05-05T06:59:38.321Z,7.23
2023-05-05T07:02:05.599Z,7.40
2023-05-05T07:04:32.068Z,7.45
2023-05-05T07:06:58.535Z,7.46
2023-05-05T07:09:25.153Z,7.09
2023-05-05T07:11:52.223Z,7.59
2023-05-05T07:14:18.752Z,7.23
2023-05-05T07:16:48.401Z,7.17
2023-05-05T07:19:16.802Z,7.45
2023-05-05T07:21:43.361Z,7.10
2023-05-05T07:24:10.547Z,7.25
2023-05-05T07:26:37.324Z,6.84
2023-05-05T07:29:05.633Z,6.79
2023-05-05T07:31:32.183Z,6.68
2023-05-05T07:33:59.554Z,6.55
2023-05-05T07:36:28.011Z,6.39
2023-05-05T07:38:54.850Z,6.59
2023-05-05T07:41:21.498Z,6.44
2023-05-05T07:43:59.565Z,6.49
2023-05-05T07:46:26.947Z,6.32
2023-05-05T07:48:53.391Z,6.50
2023-05-05T07:51:21.423Z,6.15
2023-05-05T07:53:47.882Z,6.28
2023-05-05T07:56:14.532Z,6.39
2023-05-05T07:58:42.204Z,6.24
2023-05-05T08:01:10.912Z,6.49
2023-05-05T08:03:37.953Z,6.55
2023-05-05T08:06:09.882Z,6.80
2023-05-05T08:08:38.171Z,6.57
2023-05-05T08:11:06.543Z,6.50
2023-05-05T08:13:34.478Z,6.21
2023-05-05T08:16:01.053Z,6.18
2023-05-05T08:18:27.837Z,6.54
2023-05-05T08:20:54.702Z,6.21
2023-05-05T08:23:22.349Z,6.33
2023-05-05T08:25:49.811Z,6.26
2023-05-05T08:28:18.920Z,6.28
2023-05-05T08:30:47.104Z,6.00
2023-05-05T08:33:13.552Z,6.29
2023-05-05T08:35:44.923Z,6.22
2023-05-05T08:38:12.542Z,6.60
2023-05-05T08:40:48.318Z,6.33
2023-05-05T08:43:25.516Z,6.50
2023-05-05T08:45:53.042Z,5.90
2023-05-05T08:48:20.923Z,5.81
2023-05-05T08:50:56.717Z,5.94
2023-05-05T08:53:51.243Z,6.15
2023-05-05T08:56:21.887Z,6.30
2023-05-05T08:58:51.139Z,6.01
2023-05-05T09:01:18.553Z,5.76
2023-05-05T09:03:46.259Z,5.38
2023-05-05T09:06:13.538Z,5.64
2023-05-05T09:08:41.112Z,5.03
2023-05-05T09:11:08.116Z,5.24
2023-05-05T09:13:34.697Z,4.89
2023-05-05T09:16:01.481Z,4.13
2023-05-05T09:18:30.278Z,3.96
2023-05-05T09:20:59.560Z,2.77
2023-05-05T09:23:27.558Z,2.52
2023-05-05T09:26:08.083Z,2.32
2023-05-05T09:28:34.686Z,3.20
2023-05-05T09:31:19.845Z,2.73
2023-05-05T09:33:51.334Z,3.05
2023-05-05T09:36:17.807Z,3.02
2023-05-05T09:39:06.018Z,2.93
2023-05-05T09:41:47.607Z,2.26
2023-05-05T09:44:17.509Z,2.09
2023-05-05T09:46:52.923Z,2.17
2023-05-05T09:49:25.713Z,2.05
2023-05-05T09:51:54.510Z,2.10
2023-05-05T09:54:26.515Z,2.73
2023-05-05T09:56:55.400Z,2.32
2023-05-05T09:59:23.562Z,2.65
2023-05-05T10:01:51.164Z,2.81
2023-05-05T10:04:33.483Z,2.51
2023-05-05T10:07:01.572Z,2.80
2023-05-05T10:09:28.133Z,2.76
2023-05-05T10:11:59.034Z,3.04
2023-05-05T10:14:27.805Z,3.04
2023-05-05T10:16:59.513Z,3.10
2023-05-05T10:19:35.780Z,2.93
2023-05-05T10:22:08.390Z,2.68
2023-05-05T10:24:45.326Z,2.68
2023-05-05T10:27:20.424Z,2.67
2023-05-05T10:29:51.077Z,2.93
2023-05-05T10:35:06.175Z,2.76
2023-05-05T10:37:39.458Z,2.65
2023-05-05T10:40:09.470Z,2.69
2023-05-05T10:42:40.197Z,2.95
2023-05-05T10:45:09.560Z,2.89
2023-05-05T10:47:40.099Z,2.95
2023-05-05T10:50:30.483Z,3.55
2023-05-05T10:53:24.552Z,3.30
2023-05-05T10:56:27.257Z,3.38
2023-05-05T10:59:00.117Z,3.29
2023-05-05T11:01:34.927Z,3.10
2023-05-05T11:04:34.532Z,2.44
2023-05-05T11:07:10.299Z,2.33
2023-05-05T11:09:56.714Z,1.98
2023-05-05T11:12:23.800Z,1.88
2023-05-05T11:15:26.045Z,1.73
2023-05-05T11:17:55.107Z,1.30
2023-05-05T11:20:43.400Z,1.54
2023-05-05T11:23:09.837Z,1.33
2023-05-05T11:25:38.954Z,1.33
2023-05-05T11:28:12.291Z,1.07
2023-05-05T11:30:55.730Z,1.07
2023-05-05T11:33:32.291Z,0.82
2023-05-05T11:36:05.018Z,0.94
2023-05-05T11:38:37.229Z,0.92
2023-05-05T11:41:13.371Z,1.12
2023-05-05T11:43:46.742Z,1.02
2023-05-05T11:46:22.374Z,0.94
2023-05-05T11:48:52.910Z,1.03
2023-05-05T11:51:28.302Z,1.11
2023-05-05T11:53:58.390Z,1.03
2023-05-05T11:56:25.803Z,1.09
2023-05-05T11:59:10.474Z,1.11
2023-05-05T12:01:42.202Z,1.05
2023-05-05T12:04:13.548Z,1.06
2023-05-05T12:06:41.265Z,1.06
2023-05-05T12:09:25.304Z,1.07
2023-05-05T12:11:56.278Z,1.22
2023-05-05T12:14:25.707Z,1.38
2023-05-05T12:17:07.959Z,1.27
2023-05-05T12:19:38.586Z,1.24
2023-05-05T12:22:05.329Z,1.21
2023-05-05T12:24:33.322Z,1.36
2023-05-05T12:27:12.072Z,1.52
2023-05-05T12:29:40.546Z,1.44
2023-05-05T12:32:07.183Z,1.50
2023-05-05T12:34:34.288Z,1.25
2023-05-05T12:37:02.203Z,1.42
2023-05-05T12:39:36.592Z,1.56
2023-05-05T12:42:04.958Z,5.13
2023-05-05T12:44:36.687Z,1.72
2023-05-05T12:47:04.534Z,1.73
2023-05-05T12:49:34.149Z,1.80
2023-05-05T12:52:01.520Z,1.70
2023-05-05T12:54:30.210Z,1.44
2023-05-05T12:56:58.675Z,1.36
2023-05-05T12:59:25.117Z,1.37
2023-05-05T13:01:54.205Z,1.52
2023-05-05T13:04:24.140Z,1.25
2023-05-05T13:07:12.196Z,1.20
2023-05-05T13:09:42.680Z,1.21
2023-05-05T13:12:12.268Z,1.52
2023-05-05T13:14:40.582Z,1.25
2023-05-05T13:17:07.499Z,1.07
2023-05-05T13:19:41.546Z,0.93
2023-05-05T13:22:11.561Z,0.98
2023-05-05T13:24:50.943Z,1.05
2023-05-05T13:27:21.210Z,0.86
2023-05-05T13:29:48.030Z,1.00
2023-05-05T13:32:14.592Z,0.90
2023-05-05T13:34:42.410Z,0.93
2023-05-05T13:37:09.021Z,0.98
2023-05-05T13:39:37.111Z,1.23
2023-05-05T13:42:03.807Z,1.31
2023-05-05T13:44:33.658Z,1.11
2023-05-05T13:47:00.353Z,1.12
2023-05-05T13:49:26.948Z,1.37
2023-05-05T13:51:53.599Z,1.35
2023-05-05T13:54:20.112Z,1.41
2023-05-05T13:56:47.221Z,1.69
2023-05-05T13:59:13.875Z,1.99
2023-05-05T14:01:43.492Z,2.33
2023-05-05T14:04:11.186Z,2.63
2023-05-05T14:06:37.749Z,2.89
2023-05-05T14:09:07.434Z,2.98
2023-05-05T14:11:35.099Z,2.81
2023-05-05T14:14:01.691Z,2.60
2023-05-05T14:16:28.355Z,2.68
2023-05-05T14:18:54.972Z,2.60
2023-05-05T14:21:22.042Z,2.47
2023-05-05T14:23:48.530Z,2.53
2023-05-05T14:26:18.483Z,2.73
2023-05-05T14:28:46.733Z,2.86
2023-05-05T14:31:14.923Z,2.63
2023-05-05T14:33:41.427Z,2.58
2023-05-05T14:36:09.395Z,2.55
2023-05-05T14:38:35.958Z,2.73
2023-05-05T14:41:02.493Z,2.95
2023-05-05T14:43:29.197Z,2.76
2023-05-05T14:45:58.141Z,2.99
2023-05-05T14:48:24.745Z,2.66
2023-05-05T14:50:51.245Z,2.79
2023-05-05T14:53:19.097Z,2.76
2023-05-05T14:55:45.736Z,2.75
2023-05-05T14:58:12.397Z,2.96
2023-05-05T15:00:40.206Z,2.78
2023-05-05T15:03:08.492Z,2.98
2023-05-05T15:05:35.792Z,2.89
2023-05-05T15:08:02.276Z,2.82
2023-05-05T15:10:28.951Z,3.02
2023-05-05T15:12:55.490Z,3.09
2023-05-05T15:15:22.030Z,3.12
2023-05-05T15:17:48.560Z,3.14
2023-05-05T15:20:15.148Z,3.24
2023-05-05T15:22:41.673Z,3.10
2023-05-05T15:25:12.420Z,3.05
2023-05-05T15:27:40.541Z,3.23
2023-05-05T15:30:08.443Z,3.14
2023-05-05T15:32:35.206Z,3.16
2023-05-05T15:35:01.884Z,3.34
2023-05-05T15:37:30.444Z,3.08
2023-05-05T15:40:00.084Z,3.34
2023-05-05T15:42:27.886Z,3.29
2023-05-05T15:44:55.611Z,3.63
2023-05-05T15:47:22.712Z,3.41
2023-05-05T15:49:49.283Z,3.57
2023-05-05T15:52:15.902Z,3.37
2023-05-05T15:54:43.484Z,3.27
2023-05-05T15:57:10.264Z,3.05
2023-05-05T15:59:44.602Z,3.08
2023-05-05T16:02:11.555Z,2.94
2023-05-05T16:04:38.149Z,2.70
2023-05-05T16:07:04.578Z,2.09
2023-05-05T16:09:31.518Z,1.84
2023-05-05T16:12:00.947Z,1.92
2023-05-05T16:14:28.436Z,1.69
2023-05-05T16:16:55.564Z,1.88
2023-05-05T16:19:23.341Z,1.69
2023-05-05T16:21:50.228Z,1.70
2023-05-05T16:24:17.230Z,1.76
2023-05-05T16:26:45.982Z,1.83
2023-05-05T16:29:12.704Z,1.83
2023-05-05T16:31:40.257Z,1.54
2023-05-05T16:34:07.059Z,1.81
2023-05-05T16:36:36.247Z,1.82
2023-05-05T16:39:03.530Z,1.74
2023-05-05T16:41:30.114Z,1.58
2023-05-05T16:43:56.689Z,1.47
2023-05-05T16:46:23.355Z,1.44
2023-05-05T16:48:50.929Z,1.52
2023-05-05T16:51:18.075Z,1.64
2023-05-05T16:53:44.516Z,1.68
2023-05-05T16:56:12.919Z,1.61
2023-05-05T16:58:40.531Z,1.48
2023-05-05T17:01:07.130Z,1.28
2023-05-05T17:03:33.660Z,1.27
2023-05-05T17:06:00.484Z,1.43
2023-05-05T17:08:27.257Z,1.20
2023-05-05T17:10:53.804Z,1.20
2023-05-05T17:13:20.343Z,1.14
2023-05-05T17:15:47.214Z,1.06
2023-05-05T17:18:13.798Z,1.19
2023-05-05T17:20:40.334Z,0.96
2023-05-05T17:23:08.754Z,0.87
2023-05-05T17:25:35.897Z,1.01
2023-05-05T17:28:03.815Z,0.79
2023-05-05T17:30:30.376Z,0.84
2023-05-05T17:32:56.885Z,0.97
2023-05-05T17:35:24.258Z,0.95
2023-05-05T17:37:51.721Z,0.95
2023-05-05T17:40:18.297Z,0.97
2023-05-05T17:42:48.182Z,0.92
2023-05-05T17:45:14.622Z,0.89
2023-05-05T17:47:41.315Z,0.85
2023-05-05T17:50:10.562Z,0.87
2023-05-05T17:52:37.293Z,0.76
2023-05-05T17:55:04.123Z,1.26
2023-05-05T17:57:33.029Z,1.43
2023-05-05T18:00:06.350Z,1.12
2023-05-05T18:02:36.810Z,1.03
2023-05-05T18:05:05.172Z,0.96
2023-05-05T18:07:33.572Z,0.88
2023-05-05T18:10:00.648Z,0.83
2023-05-05T18:12:27.405Z,0.86
2023-05-05T18:14:53.850Z,1.23
2023-05-05T18:17:21.058Z,1.31
2023-05-05T18:19:49.096Z,1.47
2023-05-05T18:22:15.906Z,2.10
2023-05-05T18:24:43.112Z,2.20
2023-05-05T18:27:10.091Z,1.97
2023-05-05T18:29:36.951Z,1.94
2023-05-05T18:32:06.374Z,2.18
2023-05-05T18:34:33.911Z,2.65
2023-05-05T18:37:00.567Z,2.28
2023-05-05T18:39:27.302Z,2.35
2023-05-05T18:41:53.740Z,2.11
2023-05-05T18:44:20.347Z,2.01
2023-05-05T18:46:48.337Z,2.06
2023-05-05T18:49:16.749Z,1.91
2023-05-05T18:51:43.960Z,2.16
2023-05-05T18:54:10.636Z,2.09
2023-05-05T18:56:37.356Z,1.97
2023-05-05T18:59:04.780Z,2.09
2023-05-05T19:01:31.317Z,2.12
2023-05-05T19:03:57.880Z,2.57
2023-05-05T19:06:24.376Z,2.50
2023-05-05T19:08:51.010Z,2.35
2023-05-05T19:11:18.052Z,2.60
2023-05-05T19:13:45.799Z,2.65
2023-05-05T19:16:12.834Z,2.58
2023-05-05T19:18:41.119Z,2.70
2023-05-05T19:21:09.541Z,2.75
2023-05-05T19:23:38.037Z,2.70
2023-05-05T19:26:06.687Z,2.92
2023-05-05T19:28:36.155Z,2.78
2023-05-05T19:31:02.696Z,2.73
2023-05-05T19:33:29.336Z,2.72
2023-05-05T19:35:56.545Z,2.63
2023-05-05T19:38:23.138Z,2.53
2023-05-05T19:40:50.174Z,2.56
2023-05-05T19:43:16.650Z,2.34
2023-05-05T19:45:43.290Z,2.56
2023-05-05T19:48:09.867Z,2.51
2023-05-05T19:50:36.756Z,2.30
2023-05-05T19:53:03.936Z,2.52
2023-05-05T19:55:30.573Z,2.53
2023-05-05T19:57:56.961Z,2.53
2023-05-05T20:00:23.496Z,2.38
2023-05-05T20:02:50.048Z,2.35
2023-05-05T20:05:17.303Z,2.10
2023-05-05T20:07:46.184Z,2.30
2023-05-05T20:10:13.829Z,2.25
2023-05-05T20:12:47.519Z,2.41
2023-05-05T20:15:19.249Z,2.14
2023-05-05T20:17:47.771Z,2.11
2023-05-05T20:20:20.413Z,2.24
2023-05-05T20:22:48.870Z,2.09
2023-05-05T20:25:16.208Z,1.94
2023-05-05T20:27:45.266Z,2.07
2023-05-05T20:30:12.996Z,2.06
2023-05-05T20:32:39.640Z,2.11
2023-05-05T20:35:07.208Z,2.13
2023-05-05T20:37:33.708Z,1.93
2023-05-05T20:40:00.327Z,2.10
2023-05-05T20:42:27.605Z,1.96
2023-05-05T20:44:54.138Z,2.10
2023-05-05T20:47:20.691Z,1.82
2023-05-05T20:49:47.375Z,2.01
2023-05-05T20:52:13.865Z,1.80
2023-05-05T20:54:40.442Z,2.11
2023-05-05T20:57:07.879Z,1.90
2023-05-05T20:59:34.465Z,2.07
2023-05-05T21:02:01.001Z,1.82
2023-05-05T21:04:27.534Z,1.86
2023-05-05T21:06:54.076Z,2.00
2023-05-05T21:09:21.921Z,2.08
2023-05-05T21:11:48.770Z,1.86
2023-05-05T21:14:15.469Z,1.87
2023-05-05T21:16:42.611Z,2.19
2023-05-05T21:19:09.208Z,2.24
2023-05-05T21:21:35.832Z,2.06
2023-05-05T21:24:02.976Z,2.24
2023-05-05T21:26:30.380Z,2.07
2023-05-05T21:28:56.951Z,2.32
2023-05-05T21:31:23.609Z,2.04
2023-05-05T21:33:50.267Z,2.37
2023-05-05T21:36:18.882Z,2.24
2023-05-05T21:38:45.813Z,2.67
2023-05-05T21:41:12.683Z,2.39
2023-05-05T21:43:39.179Z,2.48
2023-05-05T21:46:05.810Z,2.38
2023-05-05T21:48:32.628Z,2.37
2023-05-05T21:50:59.575Z,2.33
2023-05-05T21:53:26.282Z,2.36
2023-05-05T21:55:52.816Z,2.10
2023-05-05T21:58:19.436Z,2.46
2023-05-05T22:00:49.695Z,2.26
2023-05-05T22:03:16.690Z,2.11
2023-05-05T22:05:43.193Z,2.32
2023-05-05T22:08:09.820Z,2.19
2023-05-05T22:10:36.467Z,2.10
2023-05-05T22:13:02.972Z,2.10
2023-05-05T22:15:35.713Z,2.17
2023-05-05T22:18:09.627Z,2.12
2023-05-05T22:20:38.649Z,2.20
2023-05-05T22:23:05.203Z,1.82
2023-05-05T22:25:31.658Z,1.90
2023-05-05T22:27:58.049Z,1.96
2023-05-05T22:30:24.507Z,1.84
2023-05-05T22:32:50.962Z,1.57
2023-05-05T22:35:17.871Z,1.81
2023-05-05T22:37:44.324Z,1.75
2023-05-05T22:40:12.830Z,1.74
2023-05-05T22:42:39.528Z,1.80
2023-05-05T22:45:07.093Z,1.84
2023-05-05T22:47:33.761Z,1.97
2023-05-05T22:50:00.420Z,1.95
2023-05-05T22:52:28.818Z,2.02
2023-05-05T22:54:55.986Z,1.99
2023-05-05T22:57:22.725Z,1.94
2023-05-05T22:59:50.248Z,2.24
2023-05-05T23:02:16.895Z,2.12
2023-05-05T23:04:44.984Z,1.90
2023-05-05T23:07:12.893Z,1.90
2023-05-05T23:09:41.153Z,2.04
2023-05-05T23:12:07.996Z,2.14
2023-05-05T23:14:35.965Z,2.24
2023-05-05T23:17:04.199Z,2.19
2023-05-05T23:19:32.693Z,2.18
2023-05-05T23:22:02.089Z,2.35
2023-05-05T23:24:37.027Z,2.34
2023-05-05T23:27:03.808Z,2.09
2023-05-05T23:29:30.937Z,2.52
2023-05-05T23:31:58.118Z,2.30
2023-05-05T23:34:25.853Z,2.40
2023-05-05T23:36:52.365Z,2.27
2023-05-05T23:39:19.109Z,2.38
2023-05-05T23:41:45.546Z,2.25
2023-05-05T23:44:13.085Z,2.07
2023-05-05T23:46:39.700Z,2.55
2023-05-05T23:49:06.244Z,2.19
2023-05-05T23:51:33.081Z,2.32
2023-05-05T23:53:59.666Z,2.11
2023-05-05T23:56:26.310Z,2.47
2023-05-05T23:58:53.706Z,2.43
